createdAt,value
2022-10-14T00:02:26.586Z,18.97
2022-10-14T00:04:56.850Z,19.03
2022-10-14T00:07:26.659Z,20.13
2022-10-14T00:09:56.343Z,19.60
2022-10-14T00:12:26.080Z,20.33
2022-10-14T00:14:56.311Z,20.30
2022-10-14T00:17:28.942Z,21.30
2022-10-14T00:19:58.716Z,22.43
2022-10-14T00:22:28.855Z,21.90
2022-10-14T00:24:58.759Z,21.70
2022-10-14T00:27:28.524Z,23.87
2022-10-14T00:29:58.557Z,23.20
2022-10-14T00:32:30.866Z,24.70
2022-10-14T00:35:00.710Z,25.97
2022-10-14T00:37:33.164Z,25.83
2022-10-14T00:40:03.599Z,26.80
2022-10-14T00:42:35.598Z,26.90
2022-10-14T00:45:10.422Z,28.63
2022-10-14T00:47:43.307Z,28.90
2022-10-14T00:50:17.139Z,29.17
2022-10-14T00:52:47.811Z,28.57
2022-10-14T00:55:20.290Z,29.90
2022-10-14T00:57:50.081Z,32.10
2022-10-14T01:00:21.886Z,31.00
2022-10-14T01:02:54.277Z,30.00
2022-10-14T01:05:24.221Z,32.03
2022-10-14T01:08:06.230Z,31.50
2022-10-14T01:10:45.261Z,30.90
2022-10-14T01:13:26.625Z,31.60
2022-10-14T01:16:11.695Z,32.43
2022-10-14T01:18:59.595Z,30.87
2022-10-14T01:21:37.637Z,33.03
2022-10-14T01:24:35.838Z,32.57
2022-10-14T01:27:20.790Z,32.33
2022-10-14T01:30:24.177Z,33.20
2022-10-14T01:33:06.597Z,34.20
2022-10-14T01:35:51.582Z,34.97
2022-10-14T01:38:25.208Z,34.43
2022-10-14T01:40:59.755Z,34.97
2022-10-14T01:43:32.477Z,33.83
2022-10-14T01:46:08.267Z,36.67
2022-10-14T01:48:43.247Z,36.50
2022-10-14T01:51:19.082Z,36.33
2022-10-14T01:53:55.399Z,38.67
2022-10-14T01:56:27.756Z,36.17
2022-10-14T01:58:58.541Z,39.13
2022-10-14T02:01:30.984Z,38.87
2022-10-14T02:04:00.749Z,38.70
2022-10-14T02:06:36.491Z,38.37
2022-10-14T02:09:15.500Z,38.43
2022-10-14T02:11:58.801Z,40.30
2022-10-14T02:14:36.335Z,40.00
2022-10-14T02:17:14.173Z,40.30
2022-10-14T02:19:48.881Z,39.20
2022-10-14T02:22:27.627Z,38.63
2022-10-14T02:25:18.467Z,43.10
2022-10-14T02:27:51.787Z,42.00
2022-10-14T02:30:23.447Z,42.00
2022-10-14T02:33:03.837Z,43.10
2022-10-14T02:35:36.479Z,43.17
2022-10-14T02:38:08.433Z,42.17
2022-10-14T02:40:42.456Z,43.60
2022-10-14T02:43:13.825Z,42.00
2022-10-14T02:45:46.230Z,41.50
2022-10-14T02:48:18.705Z,41.00
2022-10-14T02:50:48.407Z,42.50
2022-10-14T02:53:19.511Z,43.93
2022-10-14T02:55:49.259Z,42.37
2022-10-14T02:58:19.070Z,40.97
2022-10-14T03:00:50.907Z,42.00
2022-10-14T03:03:24.495Z,40.70
2022-10-14T03:05:54.285Z,40.60
2022-10-14T03:08:24.645Z,40.87
2022-10-14T03:10:54.565Z,40.90
2022-10-14T03:13:25.499Z,42.40
2022-10-14T03:15:55.319Z,40.93
2022-10-14T03:18:27.669Z,43.00
2022-10-14T03:21:03.170Z,42.23
2022-10-14T03:23:39.105Z,41.30
2022-10-14T03:26:13.654Z,42.20
2022-10-14T03:28:46.316Z,42.33
2022-10-14T03:31:21.930Z,40.83
2022-10-14T03:34:32.353Z,39.40
2022-10-14T03:37:09.089Z,38.13
2022-10-14T03:39:47.478Z,38.83
2022-10-14T03:42:18.966Z,41.13
2022-10-14T03:44:50.936Z,39.70
2022-10-14T03:47:25.243Z,39.77
2022-10-14T03:49:57.568Z,39.50
2022-10-14T03:52:34.057Z,42.70
2022-10-14T03:55:10.243Z,42.63
2022-10-14T03:57:40.100Z,40.60
2022-10-14T04:00:12.749Z,43.70
2022-10-14T04:02:45.450Z,42.90
2022-10-14T04:05:40.270Z,43.40
2022-10-14T04:08:17.883Z,41.83
2022-10-14T04:10:56.616Z,41.83
2022-10-14T04:13:28.107Z,41.67
2022-10-14T04:15:57.841Z,44.17
2022-10-14T04:18:36.297Z,43.67
2022-10-14T04:21:13.017Z,43.27
2022-10-14T04:23:45.251Z,43.13
2022-10-14T04:26:19.051Z,44.20
2022-10-14T04:28:49.273Z,41.33
2022-10-14T04:31:33.293Z,40.77
2022-10-14T04:34:05.347Z,40.70
2022-10-14T04:36:42.864Z,40.10
2022-10-14T04:39:28.031Z,37.17
2022-10-14T04:41:58.456Z,37.20
2022-10-14T04:44:28.179Z,38.40
2022-10-14T04:46:58.006Z,38.20
2022-10-14T04:49:29.288Z,38.53
2022-10-14T04:52:14.427Z,34.80
2022-10-14T04:55:03.365Z,37.83
2022-10-14T04:57:40.402Z,36.73
2022-10-14T05:00:12.191Z,38.50
2022-10-14T05:03:02.887Z,38.77
2022-10-14T05:05:37.489Z,36.60
2022-10-14T05:08:11.531Z,35.97
2022-10-14T05:10:44.205Z,35.33
2022-10-14T05:13:20.778Z,36.07
2022-10-14T05:16:04.819Z,34.77
2022-10-14T05:18:36.703Z,35.10
2022-10-14T05:21:12.681Z,35.60
2022-10-14T05:24:11.107Z,35.43
2022-10-14T05:26:43.430Z,36.93
2022-10-14T05:29:16.100Z,35.87
2022-10-14T05:31:46.954Z,36.30
2022-10-14T05:34:27.937Z,36.17
2022-10-14T05:36:59.325Z,36.00
2022-10-14T05:39:35.057Z,37.90
2022-10-14T05:42:05.846Z,37.20
2022-10-14T05:44:39.050Z,37.00
2022-10-14T05:47:10.307Z,38.13
2022-10-14T05:49:40.473Z,38.83
2022-10-14T05:52:10.230Z,37.20
2022-10-14T05:54:42.628Z,38.97
2022-10-14T05:57:16.877Z,37.47
2022-10-14T05:59:46.671Z,38.43
2022-10-14T06:02:17.593Z,36.87
2022-10-14T06:04:47.471Z,39.13
2022-10-14T06:07:19.269Z,38.40
2022-10-14T06:09:54.296Z,37.47
2022-10-14T06:12:25.339Z,38.70
2022-10-14T06:14:55.540Z,37.87
2022-10-14T06:17:25.364Z,37.63
2022-10-14T06:19:56.061Z,36.40
2022-10-14T06:22:25.798Z,37.20
2022-10-14T06:25:01.821Z,36.70
2022-10-14T06:27:34.057Z,36.20
2022-10-14T06:30:03.852Z,35.37
2022-10-14T06:32:33.890Z,36.70
2022-10-14T06:35:03.952Z,36.63
2022-10-14T06:37:33.678Z,35.97
2022-10-14T06:40:06.504Z,37.83
2022-10-14T06:42:37.224Z,39.77
2022-10-14T06:45:09.318Z,38.43
2022-10-14T06:47:39.127Z,40.53
2022-10-14T06:50:10.101Z,39.23
2022-10-14T06:52:39.923Z,41.40
2022-10-14T06:55:12.678Z,41.23
2022-10-14T06:57:43.506Z,40.07
2022-10-14T07:00:14.230Z,39.30
2022-10-14T07:02:45.078Z,38.87
2022-10-14T07:05:17.339Z,43.40
2022-10-14T07:07:47.220Z,43.40
2022-10-14T07:10:19.783Z,45.40
2022-10-14T07:12:49.513Z,47.77
2022-10-14T07:15:19.498Z,50.37
2022-10-14T07:17:50.261Z,49.90
2022-10-14T07:20:20.229Z,53.30
2022-10-14T07:22:49.980Z,51.83
2022-10-14T07:25:22.412Z,53.90
2022-10-14T07:27:54.137Z,56.43
2022-10-14T07:30:24.133Z,50.03
2022-10-14T07:32:54.023Z,55.23
2022-10-14T07:35:25.707Z,56.00
2022-10-14T07:37:56.956Z,57.97
2022-10-14T07:40:29.830Z,62.70
2022-10-14T07:42:59.865Z,61.67
2022-10-14T07:45:35.210Z,62.50
2022-10-14T07:48:05.242Z,62.27
2022-10-14T07:50:35.026Z,62.20
2022-10-14T07:53:04.847Z,63.80
2022-10-14T07:55:37.225Z,63.63
2022-10-14T07:58:07.976Z,63.00
2022-10-14T08:00:37.832Z,60.37
2022-10-14T08:03:07.575Z,60.10
2022-10-14T08:05:38.878Z,57.07
2022-10-14T08:08:09.265Z,58.23
2022-10-14T08:10:42.239Z,54.50
2022-10-14T08:13:11.947Z,54.40
2022-10-14T08:15:43.742Z,52.30
2022-10-14T08:18:13.956Z,54.43
2022-10-14T08:20:43.734Z,55.20
2022-10-14T08:23:18.904Z,52.30
2022-10-14T08:25:53.403Z,50.80
2022-10-14T08:28:23.272Z,46.70
2022-10-14T08:30:54.081Z,48.80
2022-10-14T08:33:23.927Z,46.83
2022-10-14T08:35:54.826Z,46.17
2022-10-14T08:38:26.574Z,42.67
2022-10-14T08:41:10.341Z,42.20
2022-10-14T08:43:44.364Z,41.10
2022-10-14T08:46:22.995Z,36.77
2022-10-14T08:48:57.692Z,36.80
2022-10-14T08:51:27.937Z,32.50
2022-10-14T08:54:06.478Z,30.23
2022-10-14T08:56:40.584Z,30.17
2022-10-14T08:59:17.500Z,29.53
2022-10-14T09:01:54.577Z,30.37
2022-10-14T09:04:24.349Z,27.87
2022-10-14T09:06:56.677Z,28.63
2022-10-14T09:09:31.510Z,28.10
2022-10-14T09:12:07.761Z,28.80
2022-10-14T09:14:41.154Z,27.83
2022-10-14T09:17:17.315Z,25.03
2022-10-14T09:19:52.242Z,23.77
2022-10-14T09:22:22.488Z,22.90
2022-10-14T09:24:52.471Z,23.07
2022-10-14T09:27:25.830Z,22.03
2022-10-14T09:29:59.726Z,20.90
2022-10-14T09:32:32.867Z,21.20
2022-10-14T09:35:03.139Z,22.93
2022-10-14T09:37:35.370Z,22.03
2022-10-14T09:40:17.749Z,20.33
2022-10-14T09:42:53.867Z,20.87
2022-10-14T09:45:25.443Z,19.73
2022-10-14T09:47:58.277Z,19.00
2022-10-14T09:50:36.298Z,15.43
2022-10-14T09:53:11.032Z,9.27
2022-10-14T09:55:48.424Z,8.60
2022-10-14T09:58:25.013Z,9.07
2022-10-14T10:00:59.011Z,8.97
2022-10-14T10:03:32.692Z,9.97
2022-10-14T10:06:05.260Z,9.87
2022-10-14T10:08:35.832Z,8.33
2022-10-14T10:11:08.972Z,10.17
2022-10-14T10:13:45.324Z,9.70
2022-10-14T10:16:27.250Z,8.50
2022-10-14T10:19:01.265Z,8.73
2022-10-14T10:21:33.269Z,7.87
2022-10-14T10:24:06.087Z,6.20
2022-10-14T10:26:37.078Z,7.10
2022-10-14T10:29:11.663Z,5.97
2022-10-14T10:32:15.325Z,5.10
2022-10-14T10:35:00.439Z,5.10
2022-10-14T10:37:33.514Z,5.37
2022-10-14T10:40:33.115Z,5.00
2022-10-14T10:43:16.618Z,5.43
2022-10-14T10:46:00.263Z,4.20
2022-10-14T10:48:41.174Z,3.83
2022-10-14T10:51:15.622Z,5.47
2022-10-14T10:54:02.865Z,3.70
2022-10-14T10:56:38.918Z,3.40
2022-10-14T10:59:36.653Z,3.67
2022-10-14T11:02:38.225Z,4.20
2022-10-14T11:05:14.664Z,4.60
2022-10-14T11:08:08.772Z,4.37
2022-10-14T11:11:02.483Z,4.30
2022-10-14T11:13:45.403Z,4.33
2022-10-14T11:16:27.583Z,4.53
2022-10-14T11:19:11.017Z,4.53
2022-10-14T11:21:52.135Z,4.17
2022-10-14T11:24:30.749Z,4.30
2022-10-14T11:27:10.908Z,4.30
2022-10-14T11:30:14.829Z,3.93
2022-10-14T11:32:58.356Z,3.70
2022-10-14T11:35:40.767Z,3.70
2022-10-14T11:38:21.516Z,2.90
2022-10-14T11:40:59.975Z,2.90
2022-10-14T11:43:39.487Z,3.10
2022-10-14T11:46:12.806Z,2.63
2022-10-14T11:48:48.470Z,2.23
2022-10-14T11:51:26.333Z,2.10
2022-10-14T11:54:03.607Z,2.60
2022-10-14T11:56:45.860Z,2.03
2022-10-14T11:59:24.010Z,1.70
2022-10-14T12:02:01.442Z,1.73
2022-10-14T12:04:36.567Z,1.53
2022-10-14T12:07:15.895Z,1.60
2022-10-14T12:09:57.258Z,1.80
2022-10-14T12:12:31.980Z,1.77
2022-10-14T12:15:07.079Z,1.47
2022-10-14T12:17:41.509Z,1.53
2022-10-14T12:20:22.479Z,1.40
2022-10-14T12:22:55.882Z,1.53
2022-10-14T12:25:30.665Z,1.60
2022-10-14T12:28:00.914Z,1.37
2022-10-14T12:30:38.218Z,1.30
2022-10-14T12:33:10.319Z,1.60
2022-10-14T12:35:54.447Z,1.63
2022-10-14T12:38:29.552Z,1.80
2022-10-14T12:41:32.283Z,1.43
2022-10-14T12:44:04.133Z,1.40
2022-10-14T12:46:35.636Z,1.50
2022-10-14T12:49:05.529Z,1.77
2022-10-14T12:51:35.415Z,1.70
2022-10-14T12:54:17.782Z,1.37
2022-10-14T12:56:59.093Z,1.23
2022-10-14T12:59:33.078Z,1.30
2022-10-14T13:02:08.139Z,1.40
2022-10-14T13:04:40.018Z,1.07
2022-10-14T13:07:47.349Z,1.47
2022-10-14T13:10:48.547Z,1.23
2022-10-14T13:13:52.713Z,1.00
2022-10-14T13:17:13.414Z,1.33
2022-10-14T13:19:55.655Z,1.50
2022-10-14T13:22:42.311Z,1.23
2022-10-14T13:25:23.489Z,1.30
2022-10-14T13:28:05.433Z,1.53
2022-10-14T13:30:49.179Z,1.20
2022-10-14T13:33:25.437Z,1.10
2022-10-14T13:36:06.726Z,1.00
2022-10-14T13:38:40.733Z,1.30
2022-10-14T13:41:29.721Z,1.17
2022-10-14T13:44:02.639Z,1.00
2022-10-14T13:46:38.195Z,1.63
2022-10-14T13:49:20.742Z,1.10
2022-10-14T13:51:58.332Z,1.43
2022-10-14T13:54:32.111Z,1.07
2022-10-14T13:57:38.359Z,1.10
2022-10-14T14:02:53.359Z,1.40
2022-10-14T14:05:38.881Z,1.13
2022-10-14T14:11:18.188Z,1.27
2022-10-14T14:14:01.055Z,1.27
2022-10-14T14:16:36.560Z,1.20
2022-10-14T14:19:09.680Z,1.13
2022-10-14T14:21:42.125Z,1.00
2022-10-14T14:24:25.052Z,1.10
2022-10-14T14:26:59.193Z,1.37
2022-10-14T14:29:32.067Z,1.40
2022-10-14T14:32:07.935Z,1.40
2022-10-14T14:34:41.221Z,1.53
2022-10-14T14:37:40.307Z,1.60
2022-10-14T14:40:20.532Z,1.03
2022-10-14T14:42:56.054Z,1.10
2022-10-14T14:45:29.210Z,0.90
2022-10-14T14:48:04.671Z,1.30
2022-10-14T14:50:38.590Z,1.17
2022-10-14T14:53:13.635Z,1.30
2022-10-14T14:56:02.567Z,1.30
2022-10-14T14:58:37.138Z,1.30
2022-10-14T15:01:10.562Z,1.57
2022-10-14T15:04:11.946Z,2.07
2022-10-14T15:06:51.607Z,1.80
2022-10-14T15:09:26.763Z,1.63
2022-10-14T15:12:00.467Z,2.33
2022-10-14T15:14:33.002Z,1.97
2022-10-14T15:17:06.550Z,2.00
2022-10-14T15:19:38.770Z,1.70
2022-10-14T15:22:29.851Z,2.10
2022-10-14T15:25:13.078Z,2.00
2022-10-14T15:27:51.953Z,2.20
2022-10-14T15:30:35.038Z,2.47
2022-10-14T15:33:16.392Z,2.20
2022-10-14T15:35:47.707Z,2.40
2022-10-14T15:38:20.860Z,2.80
2022-10-14T15:40:52.665Z,2.20
2022-10-14T15:43:31.790Z,2.50
2022-10-14T15:46:15.296Z,2.57
2022-10-14T15:48:55.656Z,2.67
2022-10-14T15:51:26.244Z,2.57
2022-10-14T15:53:56.050Z,2.57
2022-10-14T15:56:26.260Z,3.17
2022-10-14T15:58:59.589Z,2.93
2022-10-14T16:01:29.574Z,2.80
2022-10-14T16:03:59.453Z,4.53
2022-10-14T16:06:31.062Z,3.73
2022-10-14T16:09:00.920Z,4.00
2022-10-14T16:11:32.639Z,3.80
2022-10-14T16:14:05.189Z,3.90
2022-10-14T16:16:38.974Z,4.00
2022-10-14T16:19:08.729Z,4.70
2022-10-14T16:21:39.043Z,4.43
2022-10-14T16:24:17.565Z,5.07
2022-10-14T16:26:48.959Z,5.17
2022-10-14T16:29:24.076Z,5.33
2022-10-14T16:31:55.420Z,6.10
2022-10-14T16:34:26.634Z,5.33
2022-10-14T16:36:57.378Z,6.10
2022-10-14T16:39:27.076Z,5.90
2022-10-14T16:41:57.061Z,6.50
2022-10-14T16:44:29.426Z,6.37
2022-10-14T16:47:13.426Z,7.10
2022-10-14T16:49:43.473Z,6.57
2022-10-14T16:52:14.587Z,6.30
2022-10-14T16:54:46.502Z,7.33
2022-10-14T16:57:16.670Z,6.67
2022-10-14T16:59:50.015Z,7.80
2022-10-14T17:02:21.488Z,7.40
2022-10-14T17:04:52.584Z,7.67
2022-10-14T17:07:22.253Z,7.80
2022-10-14T17:09:52.002Z,8.33
2022-10-14T17:12:22.969Z,7.50
2022-10-14T17:14:56.903Z,8.33
2022-10-14T17:17:27.745Z,8.53
2022-10-14T17:19:59.420Z,8.80
2022-10-14T17:22:29.846Z,8.57
2022-10-14T17:25:00.870Z,8.63
2022-10-14T17:27:31.591Z,8.30
2022-10-14T17:30:04.944Z,8.97
2022-10-14T17:32:34.665Z,9.77
2022-10-14T17:35:04.440Z,8.20
2022-10-14T17:37:34.135Z,8.00
2022-10-14T17:40:04.900Z,8.33
2022-10-14T17:42:35.591Z,9.83
2022-10-14T17:45:10.538Z,9.53
2022-10-14T17:47:41.355Z,8.20
2022-10-14T17:50:13.162Z,8.73
2022-10-14T17:52:43.889Z,8.77
2022-10-14T17:55:13.697Z,8.83
2022-10-14T17:57:44.423Z,9.37
2022-10-14T18:00:18.689Z,8.13
2022-10-14T18:02:48.348Z,8.27
2022-10-14T18:05:18.201Z,8.30
2022-10-14T18:07:48.964Z,8.57
2022-10-14T18:10:19.815Z,8.07
2022-10-14T18:12:50.481Z,8.33
2022-10-14T18:15:23.825Z,8.87
2022-10-14T18:17:53.476Z,8.20
2022-10-14T18:20:24.326Z,8.30
2022-10-14T18:22:54.359Z,8.70
2022-10-14T18:25:25.053Z,7.73
2022-10-14T18:27:55.783Z,7.50
2022-10-14T18:30:28.598Z,8.10
2022-10-14T18:32:59.497Z,8.93
2022-10-14T18:35:29.217Z,8.50
2022-10-14T18:37:59.955Z,8.70
2022-10-14T18:40:30.690Z,9.23
2022-10-14T18:43:04.130Z,9.30
2022-10-14T18:45:39.064Z,8.97
2022-10-14T18:48:11.652Z,9.80
2022-10-14T18:50:42.292Z,8.67
2022-10-14T18:53:12.954Z,8.90
2022-10-14T18:55:44.734Z,8.73
2022-10-14T18:58:14.459Z,9.63
2022-10-14T19:00:47.038Z,8.90
2022-10-14T19:03:17.121Z,10.80
2022-10-14T19:05:47.787Z,8.93
2022-10-14T19:08:17.484Z,10.13
2022-10-14T19:10:48.198Z,9.87
2022-10-14T19:13:18.953Z,10.60
2022-10-14T19:16:02.355Z,10.30
2022-10-14T19:18:32.251Z,10.20
2022-10-14T19:21:09.146Z,10.60
2022-10-14T19:23:39.803Z,11.13
2022-10-14T19:26:13.528Z,9.97
2022-10-14T19:28:44.846Z,9.50
2022-10-14T19:31:20.575Z,10.10
2022-10-14T19:33:51.090Z,9.83
2022-10-14T19:36:25.068Z,11.10
2022-10-14T19:38:57.619Z,10.13
2022-10-14T19:41:28.252Z,11.03
2022-10-14T19:43:59.952Z,11.03
2022-10-14T19:46:32.739Z,11.30
2022-10-14T19:49:04.944Z,11.77
2022-10-14T19:51:37.059Z,11.10
2022-10-14T19:54:08.200Z,12.50
2022-10-14T19:56:37.888Z,11.93
2022-10-14T19:59:07.819Z,11.20
2022-10-14T20:01:41.280Z,11.70
2022-10-14T20:04:11.204Z,140.23
2022-10-14T20:06:42.932Z,16.43
2022-10-14T20:09:15.211Z,12.33
2022-10-14T20:11:45.703Z,12.17
2022-10-14T20:14:18.499Z,12.00
2022-10-14T20:16:53.670Z,12.70
2022-10-14T20:19:27.792Z,11.97
2022-10-14T20:22:01.644Z,11.63
2022-10-14T20:24:31.481Z,10.93
2022-10-14T20:27:01.224Z,11.37
2022-10-14T20:29:31.036Z,10.60
2022-10-14T20:32:04.483Z,10.87
2022-10-14T20:34:35.361Z,9.47
2022-10-14T20:37:06.476Z,10.70
2022-10-14T20:39:36.369Z,9.90
2022-10-14T20:42:08.123Z,9.47
2022-10-14T20:44:39.009Z,9.50
2022-10-14T20:47:12.500Z,8.73
2022-10-14T20:49:42.912Z,8.90
2022-10-14T20:52:12.775Z,9.10
2022-10-14T20:54:43.670Z,9.87
2022-10-14T20:57:14.462Z,8.77
2022-10-14T20:59:44.241Z,9.90
2022-10-14T21:02:20.959Z,8.90
2022-10-14T21:04:53.090Z,8.27
2022-10-14T21:07:24.716Z,9.67
2022-10-14T21:09:55.776Z,9.40
2022-10-14T21:12:27.687Z,9.50
2022-10-14T21:14:58.475Z,10.03
2022-10-14T21:17:31.792Z,9.83
2022-10-14T21:20:02.620Z,10.83
2022-10-14T21:22:32.632Z,10.40
2022-10-14T21:25:03.476Z,11.30
2022-10-14T21:27:33.320Z,10.70
2022-10-14T21:30:04.112Z,11.30
2022-10-14T21:32:36.616Z,11.20
2022-10-14T21:35:08.908Z,11.40
2022-10-14T21:37:38.666Z,10.23
2022-10-14T21:40:10.270Z,11.40
2022-10-14T21:42:41.147Z,11.90
2022-10-14T21:45:11.508Z,11.87
2022-10-14T21:47:43.859Z,12.13
2022-10-14T21:50:14.578Z,11.70
2022-10-14T21:52:44.422Z,12.57
2022-10-14T21:55:14.216Z,12.03
2022-10-14T21:57:45.066Z,12.93
2022-10-14T22:00:16.088Z,13.33
2022-10-14T22:02:49.547Z,12.90
2022-10-14T22:05:19.314Z,13.60
2022-10-14T22:07:49.292Z,14.33
2022-10-14T22:10:31.672Z,14.20
2022-10-14T22:13:02.116Z,14.53
2022-10-14T22:15:31.830Z,15.10
2022-10-14T22:18:04.263Z,14.43
2022-10-14T22:20:34.169Z,15.00
2022-10-14T22:23:03.980Z,14.90
2022-10-14T22:25:35.816Z,16.27
2022-10-14T22:28:06.867Z,16.43
2022-10-14T22:30:37.459Z,17.50
2022-10-14T22:33:09.911Z,16.97
2022-10-14T22:35:39.723Z,16.77
2022-10-14T22:38:09.439Z,17.67
2022-10-14T22:40:39.307Z,17.07
2022-10-14T22:43:09.074Z,17.47
2022-10-14T22:45:39.052Z,17.00
2022-10-14T22:48:11.563Z,18.83
2022-10-14T22:50:41.261Z,18.60
2022-10-14T22:53:10.979Z,20.10
2022-10-14T22:55:40.682Z,18.27
2022-10-14T22:58:10.407Z,18.80
2022-10-14T23:00:40.185Z,20.37
2022-10-14T23:03:12.620Z,22.83
2022-10-14T23:05:42.404Z,22.03
2022-10-14T23:08:14.760Z,21.80
2022-10-14T23:10:45.093Z,21.60
2022-10-14T23:13:14.859Z,21.80
2022-10-14T23:15:44.574Z,21.77
2022-10-14T23:18:17.603Z,22.93
2022-10-14T23:20:47.327Z,22.30
2022-10-14T23:23:17.026Z,23.40
2022-10-14T23:25:47.614Z,24.37
2022-10-14T23:28:17.425Z,22.10
2022-10-14T23:30:47.216Z,22.40
2022-10-14T23:33:20.207Z,23.83
2022-10-14T23:35:49.942Z,23.30
2022-10-14T23:38:19.675Z,23.53
2022-10-14T23:40:49.373Z,25.30
2022-10-14T23:43:19.431Z,24.23
2022-10-14T23:45:49.173Z,23.07
2022-10-14T23:48:21.563Z,26.67
2022-10-14T23:50:51.289Z,22.50
2022-10-14T23:53:21.315Z,24.93
2022-10-14T23:55:51.742Z,25.50
2022-10-14T23:58:21.509Z,23.80
